sensor_id;sensor_type;location;lat;lon;timestamp;P1;durP1;ratioP1;P2;durP2;ratioP2
39490;SDS011;25175;50.140;18.990;2022-11-13T00:01:49;68.57;;;26.60;;
39490;SDS011;25175;50.140;18.990;2022-11-13T00:05:10;171.05;;;52.35;;
39490;SDS011;25175;50.140;18.990;2022-11-13T00:08:30;140.10;;;43.33;;
39490;SDS011;25175;50.140;18.990;2022-11-13T00:11:52;62.45;;;27.45;;
39490;SDS011;25175;50.140;18.990;2022-11-13T00:15:12;69.78;;;27.98;;
39490;SDS011;25175;50.140;18.990;2022-11-13T00:18:33;80.20;;;25.85;;
39490;SDS011;25175;50.140;18.990;2022-11-13T00:21:54;67.18;;;25.83;;
39490;SDS011;25175;50.140;18.990;2022-11-13T00:25:17;68.60;;;25.52;;
39490;SDS011;25175;50.140;18.990;2022-11-13T00:28:39;71.40;;;25.75;;
39490;SDS011;25175;50.140;18.990;2022-11-13T00:32:01;73.93;;;26.30;;
39490;SDS011;25175;50.140;18.990;2022-11-13T00:35:22;85.53;;;30.38;;
39490;SDS011;25175;50.140;18.990;2022-11-13T00:38:42;74.50;;;27.10;;
39490;SDS011;25175;50.140;18.990;2022-11-13T00:42:03;88.88;;;31.60;;
39490;SDS011;25175;50.140;18.990;2022-11-13T00:45:25;74.93;;;28.42;;
39490;SDS011;25175;50.140;18.990;2022-11-13T00:48:45;67.32;;;25.30;;
39490;SDS011;25175;50.140;18.990;2022-11-13T00:52:06;76.05;;;28.38;;
39490;SDS011;25175;50.140;18.990;2022-11-13T00:55:26;72.07;;;25.85;;
39490;SDS011;25175;50.140;18.990;2022-11-13T00:58:47;73.97;;;26.73;;
39490;SDS011;25175;50.140;18.990;2022-11-13T01:02:09;64.25;;;24.55;;
39490;SDS011;25175;50.140;18.990;2022-11-13T01:05:34;80.57;;;27.42;;
39490;SDS011;25175;50.140;18.990;2022-11-13T01:08:55;69.25;;;26.67;;
39490;SDS011;25175;50.140;18.990;2022-11-13T01:12:17;67.30;;;23.92;;
39490;SDS011;25175;50.140;18.990;2022-11-13T01:15:38;64.85;;;23.40;;
39490;SDS011;25175;50.140;18.990;2022-11-13T01:19:00;65.47;;;24.70;;
39490;SDS011;25175;50.140;18.990;2022-11-13T01:22:20;72.38;;;25.58;;
39490;SDS011;25175;50.140;18.990;2022-11-13T01:25:40;59.20;;;24.60;;
39490;SDS011;25175;50.140;18.990;2022-11-13T01:29:00;65.60;;;26.35;;
39490;SDS011;25175;50.140;18.990;2022-11-13T01:32:21;63.90;;;25.42;;
39490;SDS011;25175;50.140;18.990;2022-11-13T01:35:43;67.70;;;26.42;;
39490;SDS011;25175;50.140;18.990;2022-11-13T01:39:03;62.55;;;24.25;;
39490;SDS011;25175;50.140;18.990;2022-11-13T01:42:24;74.00;;;28.88;;
39490;SDS011;25175;50.140;18.990;2022-11-13T01:45:48;74.03;;;29.85;;
39490;SDS011;25175;50.140;18.990;2022-11-13T01:49:26;65.53;;;25.67;;
39490;SDS011;25175;50.140;18.990;2022-11-13T01:52:51;62.90;;;24.08;;
39490;SDS011;25175;50.140;18.990;2022-11-13T01:56:11;57.70;;;22.70;;
39490;SDS011;25175;50.140;18.990;2022-11-13T01:59:34;62.15;;;24.23;;
39490;SDS011;25175;50.140;18.990;2022-11-13T02:02:58;68.28;;;25.00;;
39490;SDS011;25175;50.140;18.990;2022-11-13T02:06:19;63.53;;;24.83;;
39490;SDS011;25175;50.140;18.990;2022-11-13T02:09:42;62.53;;;26.00;;
39490;SDS011;25175;50.140;18.990;2022-11-13T02:13:04;64.70;;;24.52;;
39490;SDS011;25175;50.140;18.990;2022-11-13T02:16:25;57.55;;;22.73;;
39490;SDS011;25175;50.140;18.990;2022-11-13T02:19:48;65.25;;;25.30;;
39490;SDS011;25175;50.140;18.990;2022-11-13T02:23:12;59.05;;;22.38;;
39490;SDS011;25175;50.140;18.990;2022-11-13T02:26:40;73.25;;;23.15;;
39490;SDS011;25175;50.140;18.990;2022-11-13T02:30:14;61.35;;;23.08;;
39490;SDS011;25175;50.140;18.990;2022-11-13T02:33:36;68.47;;;22.02;;
39490;SDS011;25175;50.140;18.990;2022-11-13T02:36:56;58.25;;;22.58;;
39490;SDS011;25175;50.140;18.990;2022-11-13T02:40:18;72.78;;;22.70;;
39490;SDS011;25175;50.140;18.990;2022-11-13T02:43:40;84.82;;;22.08;;
39490;SDS011;25175;50.140;18.990;2022-11-13T02:47:00;62.10;;;21.85;;
39490;SDS011;25175;50.140;18.990;2022-11-13T02:50:21;78.07;;;21.30;;
39490;SDS011;25175;50.140;18.990;2022-11-13T02:53:42;59.22;;;21.90;;
39490;SDS011;25175;50.140;18.990;2022-11-13T02:57:02;69.38;;;24.00;;
39490;SDS011;25175;50.140;18.990;2022-11-13T03:00:24;66.32;;;22.67;;
39490;SDS011;25175;50.140;18.990;2022-11-13T03:03:44;72.55;;;21.38;;
39490;SDS011;25175;50.140;18.990;2022-11-13T03:07:05;69.90;;;24.02;;
39490;SDS011;25175;50.140;18.990;2022-11-13T03:10:25;60.95;;;21.60;;
39490;SDS011;25175;50.140;18.990;2022-11-13T03:13:45;77.22;;;22.23;;
39490;SDS011;25175;50.140;18.990;2022-11-13T03:17:07;60.17;;;21.85;;
39490;SDS011;25175;50.140;18.990;2022-11-13T03:20:28;58.45;;;22.23;;
39490;SDS011;25175;50.140;18.990;2022-11-13T03:23:48;60.88;;;23.38;;
39490;SDS011;25175;50.140;18.990;2022-11-13T03:27:09;66.07;;;22.50;;
39490;SDS011;25175;50.140;18.990;2022-11-13T03:30:29;79.68;;;24.52;;
39490;SDS011;25175;50.140;18.990;2022-11-13T03:33:52;64.32;;;23.70;;
39490;SDS011;25175;50.140;18.990;2022-11-13T03:37:13;64.57;;;24.20;;
39490;SDS011;25175;50.140;18.990;2022-11-13T03:40:33;64.18;;;23.60;;
39490;SDS011;25175;50.140;18.990;2022-11-13T03:43:54;76.80;;;23.95;;
39490;SDS011;25175;50.140;18.990;2022-11-13T03:47:14;63.75;;;23.95;;
39490;SDS011;25175;50.140;18.990;2022-11-13T03:50:36;66.20;;;23.38;;
39490;SDS011;25175;50.140;18.990;2022-11-13T03:53:56;92.05;;;24.33;;
39490;SDS011;25175;50.140;18.990;2022-11-13T03:57:18;69.18;;;22.80;;
39490;SDS011;25175;50.140;18.990;2022-11-13T04:00:43;76.13;;;24.35;;
39490;SDS011;25175;50.140;18.990;2022-11-13T04:04:04;72.13;;;24.88;;
39490;SDS011;25175;50.140;18.990;2022-11-13T04:07:26;88.30;;;25.02;;
39490;SDS011;25175;50.140;18.990;2022-11-13T04:10:46;102.15;;;24.95;;
39490;SDS011;25175;50.140;18.990;2022-11-13T04:14:07;78.47;;;26.45;;
39490;SDS011;25175;50.140;18.990;2022-11-13T04:17:27;79.32;;;25.25;;
39490;SDS011;25175;50.140;18.990;2022-11-13T04:20:47;104.30;;;26.40;;
39490;SDS011;25175;50.140;18.990;2022-11-13T04:24:09;91.65;;;25.60;;
39490;SDS011;25175;50.140;18.990;2022-11-13T04:27:29;78.68;;;24.25;;
39490;SDS011;25175;50.140;18.990;2022-11-13T04:30:51;83.50;;;25.90;;
39490;SDS011;25175;50.140;18.990;2022-11-13T04:34:11;97.57;;;25.85;;
39490;SDS011;25175;50.140;18.990;2022-11-13T04:37:32;81.90;;;25.33;;
39490;SDS011;25175;50.140;18.990;2022-11-13T04:40:53;93.93;;;25.17;;
39490;SDS011;25175;50.140;18.990;2022-11-13T04:44:28;134.20;;;26.45;;
39490;SDS011;25175;50.140;18.990;2022-11-13T04:47:49;81.03;;;24.83;;
39490;SDS011;25175;50.140;18.990;2022-11-13T04:51:10;107.05;;;25.73;;
39490;SDS011;25175;50.140;18.990;2022-11-13T04:54:30;89.57;;;25.23;;
39490;SDS011;25175;50.140;18.990;2022-11-13T04:57:53;82.72;;;24.98;;
39490;SDS011;25175;50.140;18.990;2022-11-13T05:01:14;104.72;;;25.15;;
39490;SDS011;25175;50.140;18.990;2022-11-13T05:04:35;78.78;;;25.55;;
39490;SDS011;25175;50.140;18.990;2022-11-13T05:07:55;106.10;;;25.55;;
39490;SDS011;25175;50.140;18.990;2022-11-13T05:11:16;110.60;;;25.52;;
39490;SDS011;25175;50.140;18.990;2022-11-13T05:14:38;87.05;;;26.85;;
39490;SDS011;25175;50.140;18.990;2022-11-13T05:17:59;91.03;;;25.50;;
39490;SDS011;25175;50.140;18.990;2022-11-13T05:21:20;88.47;;;28.70;;
39490;SDS011;25175;50.140;18.990;2022-11-13T05:24:40;105.70;;;28.23;;
39490;SDS011;25175;50.140;18.990;2022-11-13T05:28:01;102.88;;;26.67;;
39490;SDS011;25175;50.140;18.990;2022-11-13T05:31:22;92.88;;;25.63;;
39490;SDS011;25175;50.140;18.990;2022-11-13T05:34:43;87.80;;;22.38;;
39490;SDS011;25175;50.140;18.990;2022-11-13T05:38:03;76.35;;;23.83;;
39490;SDS011;25175;50.140;18.990;2022-11-13T05:41:23;74.75;;;24.50;;
39490;SDS011;25175;50.140;18.990;2022-11-13T05:44:44;94.25;;;24.52;;
39490;SDS011;25175;50.140;18.990;2022-11-13T05:48:06;81.78;;;23.95;;
39490;SDS011;25175;50.140;18.990;2022-11-13T05:51:28;78.15;;;24.48;;
39490;SDS011;25175;50.140;18.990;2022-11-13T05:54:49;96.20;;;22.33;;
39490;SDS011;25175;50.140;18.990;2022-11-13T05:58:10;71.47;;;22.95;;
39490;SDS011;25175;50.140;18.990;2022-11-13T06:01:32;74.13;;;23.95;;
39490;SDS011;25175;50.140;18.990;2022-11-13T06:04:55;76.70;;;23.40;;
39490;SDS011;25175;50.140;18.990;2022-11-13T06:08:15;77.43;;;23.15;;
39490;SDS011;25175;50.140;18.990;2022-11-13T06:11:37;74.97;;;23.15;;
39490;SDS011;25175;50.140;18.990;2022-11-13T06:14:58;69.20;;;21.17;;
39490;SDS011;25175;50.140;18.990;2022-11-13T06:18:20;79.65;;;23.15;;
39490;SDS011;25175;50.140;18.990;2022-11-13T06:21:43;71.75;;;21.33;;
39490;SDS011;25175;50.140;18.990;2022-11-13T06:25:04;66.40;;;21.73;;
39490;SDS011;25175;50.140;18.990;2022-11-13T06:28:25;80.05;;;23.77;;
39490;SDS011;25175;50.140;18.990;2022-11-13T06:31:45;70.32;;;21.90;;
39490;SDS011;25175;50.140;18.990;2022-11-13T06:35:06;72.55;;;21.80;;
39490;SDS011;25175;50.140;18.990;2022-11-13T06:38:30;62.75;;;22.15;;
39490;SDS011;25175;50.140;18.990;2022-11-13T06:41:51;64.03;;;19.80;;
39490;SDS011;25175;50.140;18.990;2022-11-13T06:45:11;64.82;;;20.23;;
39490;SDS011;25175;50.140;18.990;2022-11-13T06:48:33;56.70;;;20.20;;
39490;SDS011;25175;50.140;18.990;2022-11-13T06:51:54;56.72;;;21.02;;
39490;SDS011;25175;50.140;18.990;2022-11-13T06:55:16;63.00;;;19.08;;
39490;SDS011;25175;50.140;18.990;2022-11-13T06:58:37;66.97;;;20.38;;
39490;SDS011;25175;50.140;18.990;2022-11-13T07:01:57;51.83;;;19.00;;
39490;SDS011;25175;50.140;18.990;2022-11-13T07:05:18;61.58;;;21.70;;
39490;SDS011;25175;50.140;18.990;2022-11-13T07:08:39;86.28;;;20.40;;
39490;SDS011;25175;50.140;18.990;2022-11-13T07:12:01;64.68;;;20.98;;
39490;SDS011;25175;50.140;18.990;2022-11-13T07:15:23;73.57;;;20.60;;
39490;SDS011;25175;50.140;18.990;2022-11-13T07:18:43;83.90;;;21.02;;
39490;SDS011;25175;50.140;18.990;2022-11-13T07:22:04;80.93;;;21.60;;
39490;SDS011;25175;50.140;18.990;2022-11-13T07:25:24;87.35;;;19.98;;
39490;SDS011;25175;50.140;18.990;2022-11-13T07:28:47;96.85;;;22.13;;
39490;SDS011;25175;50.140;18.990;2022-11-13T07:32:08;101.47;;;21.40;;
39490;SDS011;25175;50.140;18.990;2022-11-13T07:35:28;78.68;;;20.40;;
39490;SDS011;25175;50.140;18.990;2022-11-13T07:38:50;81.40;;;21.10;;
39490;SDS011;25175;50.140;18.990;2022-11-13T07:42:11;70.93;;;22.65;;
39490;SDS011;25175;50.140;18.990;2022-11-13T07:45:33;69.25;;;20.80;;
39490;SDS011;25175;50.140;18.990;2022-11-13T07:48:53;87.53;;;20.92;;
39490;SDS011;25175;50.140;18.990;2022-11-13T07:52:14;62.90;;;21.65;;
39490;SDS011;25175;50.140;18.990;2022-11-13T07:55:34;65.05;;;22.20;;
39490;SDS011;25175;50.140;18.990;2022-11-13T07:58:55;82.10;;;22.83;;
39490;SDS011;25175;50.140;18.990;2022-11-13T08:02:16;72.90;;;22.65;;
39490;SDS011;25175;50.140;18.990;2022-11-13T08:05:37;67.85;;;23.55;;
39490;SDS011;25175;50.140;18.990;2022-11-13T08:08:57;100.28;;;23.40;;
39490;SDS011;25175;50.140;18.990;2022-11-13T08:12:18;93.88;;;25.65;;
39490;SDS011;25175;50.140;18.990;2022-11-13T08:15:38;78.93;;;23.60;;
39490;SDS011;25175;50.140;18.990;2022-11-13T08:19:00;76.90;;;22.67;;
39490;SDS011;25175;50.140;18.990;2022-11-13T08:22:21;86.55;;;22.30;;
39490;SDS011;25175;50.140;18.990;2022-11-13T08:25:41;68.10;;;21.90;;
39490;SDS011;25175;50.140;18.990;2022-11-13T08:29:01;82.65;;;23.13;;
39490;SDS011;25175;50.140;18.990;2022-11-13T08:32:22;77.80;;;24.17;;
39490;SDS011;25175;50.140;18.990;2022-11-13T08:35:51;76.60;;;25.00;;
39490;SDS011;25175;50.140;18.990;2022-11-13T08:39:12;74.85;;;23.48;;
39490;SDS011;25175;50.140;18.990;2022-11-13T08:42:33;73.88;;;23.80;;
39490;SDS011;25175;50.140;18.990;2022-11-13T08:45:54;80.07;;;26.83;;
39490;SDS011;25175;50.140;18.990;2022-11-13T08:49:14;78.25;;;26.17;;
39490;SDS011;25175;50.140;18.990;2022-11-13T08:52:35;92.18;;;25.73;;
39490;SDS011;25175;50.140;18.990;2022-11-13T08:55:58;72.38;;;24.88;;
39490;SDS011;25175;50.140;18.990;2022-11-13T08:59:19;79.78;;;24.35;;
39490;SDS011;25175;50.140;18.990;2022-11-13T09:02:41;76.82;;;24.13;;
39490;SDS011;25175;50.140;18.990;2022-11-13T09:06:03;92.88;;;25.75;;
39490;SDS011;25175;50.140;18.990;2022-11-13T09:09:25;75.05;;;24.88;;
39490;SDS011;25175;50.140;18.990;2022-11-13T09:12:46;81.15;;;26.40;;
39490;SDS011;25175;50.140;18.990;2022-11-13T09:16:07;79.57;;;25.48;;
39490;SDS011;25175;50.140;18.990;2022-11-13T09:19:27;76.65;;;24.90;;
39490;SDS011;25175;50.140;18.990;2022-11-13T09:22:47;65.80;;;24.08;;
39490;SDS011;25175;50.140;18.990;2022-11-13T09:26:09;67.90;;;23.40;;
39490;SDS011;25175;50.140;18.990;2022-11-13T09:29:30;71.13;;;23.27;;
39490;SDS011;25175;50.140;18.990;2022-11-13T09:32:52;71.40;;;23.63;;
39490;SDS011;25175;50.140;18.990;2022-11-13T09:36:14;78.72;;;25.92;;
39490;SDS011;25175;50.140;18.990;2022-11-13T09:39:35;84.63;;;27.48;;
39490;SDS011;25175;50.140;18.990;2022-11-13T09:42:57;80.05;;;27.50;;
39490;SDS011;25175;50.140;18.990;2022-11-13T09:46:20;66.45;;;24.40;;
39490;SDS011;25175;50.140;18.990;2022-11-13T09:49:52;72.50;;;24.02;;
39490;SDS011;25175;50.140;18.990;2022-11-13T09:53:17;92.28;;;25.33;;
39490;SDS011;25175;50.140;18.990;2022-11-13T09:56:39;71.72;;;26.02;;
39490;SDS011;25175;50.140;18.990;2022-11-13T10:00:04;76.68;;;25.58;;
39490;SDS011;25175;50.140;18.990;2022-11-13T10:03:31;80.50;;;24.55;;
39490;SDS011;25175;50.140;18.990;2022-11-13T10:07:02;76.55;;;24.88;;
39490;SDS011;25175;50.140;18.990;2022-11-13T10:10:37;77.97;;;26.25;;
39490;SDS011;25175;50.140;18.990;2022-11-13T10:14:08;71.00;;;23.67;;
39490;SDS011;25175;50.140;18.990;2022-11-13T10:17:38;68.38;;;24.00;;
39490;SDS011;25175;50.140;18.990;2022-11-13T10:21:12;66.07;;;25.48;;
39490;SDS011;25175;50.140;18.990;2022-11-13T10:24:38;65.55;;;25.23;;
39490;SDS011;25175;50.140;18.990;2022-11-13T10:28:01;72.55;;;24.70;;
39490;SDS011;25175;50.140;18.990;2022-11-13T10:31:39;76.63;;;26.15;;
39490;SDS011;25175;50.140;18.990;2022-11-13T10:35:08;77.90;;;25.08;;
39490;SDS011;25175;50.140;18.990;2022-11-13T10:38:42;74.05;;;26.20;;
39490;SDS011;25175;50.140;18.990;2022-11-13T10:42:04;72.53;;;25.27;;
39490;SDS011;25175;50.140;18.990;2022-11-13T10:45:24;71.20;;;26.88;;
39490;SDS011;25175;50.140;18.990;2022-11-13T10:48:44;71.65;;;26.55;;
39490;SDS011;25175;50.140;18.990;2022-11-13T10:52:15;83.50;;;29.63;;
39490;SDS011;25175;50.140;18.990;2022-11-13T10:55:39;85.00;;;28.05;;
39490;SDS011;25175;50.140;18.990;2022-11-13T10:59:00;84.50;;;29.17;;
39490;SDS011;25175;50.140;18.990;2022-11-13T11:02:23;94.40;;;30.75;;
39490;SDS011;25175;50.140;18.990;2022-11-13T11:05:52;85.25;;;32.20;;
39490;SDS011;25175;50.140;18.990;2022-11-13T11:09:20;86.35;;;30.15;;
39490;SDS011;25175;50.140;18.990;2022-11-13T11:12:43;91.03;;;31.90;;
39490;SDS011;25175;50.140;18.990;2022-11-13T11:16:12;87.68;;;30.27;;
39490;SDS011;25175;50.140;18.990;2022-11-13T11:19:36;77.40;;;28.33;;
39490;SDS011;25175;50.140;18.990;2022-11-13T11:23:12;85.10;;;30.27;;
39490;SDS011;25175;50.140;18.990;2022-11-13T11:26:40;82.75;;;30.02;;
39490;SDS011;25175;50.140;18.990;2022-11-13T11:30:05;89.63;;;33.95;;
39490;SDS011;25175;50.140;18.990;2022-11-13T11:33:38;80.07;;;29.55;;
39490;SDS011;25175;50.140;18.990;2022-11-13T11:37:11;77.03;;;27.40;;
39490;SDS011;25175;50.140;18.990;2022-11-13T11:40:35;81.35;;;27.65;;
39490;SDS011;25175;50.140;18.990;2022-11-13T11:44:01;75.78;;;27.27;;
39490;SDS011;25175;50.140;18.990;2022-11-13T11:47:29;67.93;;;26.08;;
39490;SDS011;25175;50.140;18.990;2022-11-13T11:50:53;69.80;;;25.63;;
39490;SDS011;25175;50.140;18.990;2022-11-13T11:54:25;69.22;;;26.23;;
39490;SDS011;25175;50.140;18.990;2022-11-13T11:57:57;82.55;;;28.38;;
39490;SDS011;25175;50.140;18.990;2022-11-13T12:01:28;89.63;;;31.30;;
39490;SDS011;25175;50.140;18.990;2022-11-13T12:05:04;77.90;;;30.08;;
39490;SDS011;25175;50.140;18.990;2022-11-13T12:08:38;76.88;;;27.83;;
39490;SDS011;25175;50.140;18.990;2022-11-13T12:12:10;77.28;;;28.70;;
39490;SDS011;25175;50.140;18.990;2022-11-13T12:15:37;83.80;;;30.13;;
39490;SDS011;25175;50.140;18.990;2022-11-13T12:19:08;90.38;;;31.48;;
39490;SDS011;25175;50.140;18.990;2022-11-13T12:22:35;89.10;;;31.85;;
39490;SDS011;25175;50.140;18.990;2022-11-13T12:26:02;79.03;;;29.75;;
39490;SDS011;25175;50.140;18.990;2022-11-13T12:29:37;82.63;;;31.08;;
39490;SDS011;25175;50.140;18.990;2022-11-13T12:33:15;82.78;;;30.45;;
39490;SDS011;25175;50.140;18.990;2022-11-13T12:36:44;87.15;;;32.70;;
39490;SDS011;25175;50.140;18.990;2022-11-13T12:40:05;83.38;;;30.00;;
39490;SDS011;25175;50.140;18.990;2022-11-13T12:43:36;82.07;;;31.15;;
39490;SDS011;25175;50.140;18.990;2022-11-13T12:50:30;73.50;;;29.70;;
39490;SDS011;25175;50.140;18.990;2022-11-13T12:53:52;83.05;;;31.67;;
39490;SDS011;25175;50.140;18.990;2022-11-13T12:57:16;87.45;;;30.98;;
39490;SDS011;25175;50.140;18.990;2022-11-13T13:00:39;82.03;;;31.10;;
39490;SDS011;25175;50.140;18.990;2022-11-13T13:04:25;88.22;;;32.30;;
39490;SDS011;25175;50.140;18.990;2022-11-13T13:08:06;81.63;;;31.17;;
39490;SDS011;25175;50.140;18.990;2022-11-13T13:11:45;76.30;;;30.30;;
39490;SDS011;25175;50.140;18.990;2022-11-13T13:19:04;76.95;;;30.17;;
39490;SDS011;25175;50.140;18.990;2022-11-13T13:22:27;88.72;;;32.63;;
39490;SDS011;25175;50.140;18.990;2022-11-13T13:25:49;93.97;;;36.70;;
39490;SDS011;25175;50.140;18.990;2022-11-13T13:29:24;88.30;;;32.03;;
39490;SDS011;25175;50.140;18.990;2022-11-13T13:32:48;93.03;;;35.22;;
39490;SDS011;25175;50.140;18.990;2022-11-13T13:36:20;90.00;;;35.28;;
39490;SDS011;25175;50.140;18.990;2022-11-13T13:39:52;89.78;;;34.60;;
39490;SDS011;25175;50.140;18.990;2022-11-13T13:43:27;89.00;;;34.25;;
39490;SDS011;25175;50.140;18.990;2022-11-13T13:46:58;85.05;;;33.42;;
39490;SDS011;25175;50.140;18.990;2022-11-13T13:50:19;80.35;;;31.90;;
39490;SDS011;25175;50.140;18.990;2022-11-13T13:53:41;87.70;;;34.55;;
39490;SDS011;25175;50.140;18.990;2022-11-13T13:57:02;88.72;;;36.28;;
39490;SDS011;25175;50.140;18.990;2022-11-13T14:00:23;91.18;;;35.67;;
39490;SDS011;25175;50.140;18.990;2022-11-13T14:03:46;94.57;;;34.78;;
39490;SDS011;25175;50.140;18.990;2022-11-13T14:07:16;91.88;;;36.72;;
39490;SDS011;25175;50.140;18.990;2022-11-13T14:10:39;82.85;;;33.67;;
39490;SDS011;25175;50.140;18.990;2022-11-13T14:14:05;75.95;;;31.05;;
39490;SDS011;25175;50.140;18.990;2022-11-13T14:17:27;81.53;;;33.17;;
39490;SDS011;25175;50.140;18.990;2022-11-13T14:20:51;74.25;;;31.98;;
39490;SDS011;25175;50.140;18.990;2022-11-13T14:24:15;72.90;;;31.75;;
39490;SDS011;25175;50.140;18.990;2022-11-13T14:27:40;78.07;;;31.60;;
39490;SDS011;25175;50.140;18.990;2022-11-13T14:31:01;74.57;;;32.35;;
39490;SDS011;25175;50.140;18.990;2022-11-13T14:34:24;77.10;;;32.78;;
39490;SDS011;25175;50.140;18.990;2022-11-13T14:37:45;77.55;;;31.80;;
39490;SDS011;25175;50.140;18.990;2022-11-13T14:41:06;83.25;;;32.35;;
39490;SDS011;25175;50.140;18.990;2022-11-13T14:44:38;84.72;;;33.50;;
39490;SDS011;25175;50.140;18.990;2022-11-13T14:47:59;84.78;;;34.03;;
39490;SDS011;25175;50.140;18.990;2022-11-13T14:51:23;88.10;;;33.80;;
39490;SDS011;25175;50.140;18.990;2022-11-13T14:54:47;91.05;;;35.05;;
39490;SDS011;25175;50.140;18.990;2022-11-13T14:58:10;83.03;;;33.60;;
39490;SDS011;25175;50.140;18.990;2022-11-13T15:01:31;94.38;;;35.65;;
39490;SDS011;25175;50.140;18.990;2022-11-13T15:04:52;92.00;;;36.17;;
39490;SDS011;25175;50.140;18.990;2022-11-13T15:08:13;88.60;;;36.65;;
39490;SDS011;25175;50.140;18.990;2022-11-13T15:11:35;104.40;;;38.58;;
39490;SDS011;25175;50.140;18.990;2022-11-13T15:14:58;102.38;;;39.67;;
39490;SDS011;25175;50.140;18.990;2022-11-13T15:18:18;103.63;;;39.50;;
39490;SDS011;25175;50.140;18.990;2022-11-13T15:21:39;102.80;;;39.47;;
39490;SDS011;25175;50.140;18.990;2022-11-13T15:25:00;102.43;;;39.10;;
39490;SDS011;25175;50.140;18.990;2022-11-13T15:28:22;110.40;;;41.95;;
39490;SDS011;25175;50.140;18.990;2022-11-13T15:31:43;106.90;;;41.22;;
39490;SDS011;25175;50.140;18.990;2022-11-13T15:35:05;115.07;;;42.08;;
39490;SDS011;25175;50.140;18.990;2022-11-13T15:38:29;105.90;;;40.45;;
39490;SDS011;25175;50.140;18.990;2022-11-13T15:41:50;110.68;;;40.45;;
39490;SDS011;25175;50.140;18.990;2022-11-13T15:45:13;112.97;;;39.05;;
39490;SDS011;25175;50.140;18.990;2022-11-13T15:48:35;105.72;;;37.33;;
39490;SDS011;25175;50.140;18.990;2022-11-13T15:51:56;129.98;;;38.97;;
39490;SDS011;25175;50.140;18.990;2022-11-13T15:55:23;113.60;;;35.88;;
39490;SDS011;25175;50.140;18.990;2022-11-13T15:58:46;107.57;;;37.83;;
39490;SDS011;25175;50.140;18.990;2022-11-13T16:02:08;121.53;;;38.15;;
39490;SDS011;25175;50.140;18.990;2022-11-13T16:05:29;114.25;;;36.85;;
39490;SDS011;25175;50.140;18.990;2022-11-13T16:08:49;121.07;;;37.10;;
39490;SDS011;25175;50.140;18.990;2022-11-13T16:12:10;119.45;;;40.67;;
39490;SDS011;25175;50.140;18.990;2022-11-13T16:15:31;125.03;;;39.78;;
39490;SDS011;25175;50.140;18.990;2022-11-13T16:18:53;115.38;;;39.05;;
39490;SDS011;25175;50.140;18.990;2022-11-13T16:22:17;129.77;;;36.80;;
39490;SDS011;25175;50.140;18.990;2022-11-13T16:25:39;112.15;;;34.92;;
39490;SDS011;25175;50.140;18.990;2022-11-13T16:28:59;105.38;;;36.38;;
39490;SDS011;25175;50.140;18.990;2022-11-13T16:32:20;117.50;;;40.55;;
39490;SDS011;25175;50.140;18.990;2022-11-13T16:35:43;113.93;;;35.80;;
39490;SDS011;25175;50.140;18.990;2022-11-13T16:39:03;103.70;;;34.90;;
39490;SDS011;25175;50.140;18.990;2022-11-13T16:42:23;133.88;;;37.10;;
39490;SDS011;25175;50.140;18.990;2022-11-13T16:45:43;115.22;;;35.22;;
39490;SDS011;25175;50.140;18.990;2022-11-13T16:49:04;98.40;;;35.72;;
39490;SDS011;25175;50.140;18.990;2022-11-13T16:52:26;107.45;;;36.50;;
39490;SDS011;25175;50.140;18.990;2022-11-13T16:55:47;110.07;;;37.60;;
39490;SDS011;25175;50.140;18.990;2022-11-13T16:59:08;113.80;;;38.22;;
39490;SDS011;25175;50.140;18.990;2022-11-13T17:02:30;109.45;;;36.25;;
39490;SDS011;25175;50.140;18.990;2022-11-13T17:05:50;105.93;;;36.10;;
39490;SDS011;25175;50.140;18.990;2022-11-13T17:09:11;120.05;;;38.03;;
39490;SDS011;25175;50.140;18.990;2022-11-13T17:12:33;114.07;;;38.22;;
39490;SDS011;25175;50.140;18.990;2022-11-13T17:15:53;116.07;;;40.67;;
39490;SDS011;25175;50.140;18.990;2022-11-13T17:19:13;99.85;;;35.22;;
39490;SDS011;25175;50.140;18.990;2022-11-13T17:22:34;96.60;;;33.50;;
39490;SDS011;25175;50.140;18.990;2022-11-13T17:25:56;84.45;;;32.90;;
39490;SDS011;25175;50.140;18.990;2022-11-13T17:29:16;94.40;;;32.20;;
39490;SDS011;25175;50.140;18.990;2022-11-13T17:32:36;96.70;;;32.88;;
39490;SDS011;25175;50.140;18.990;2022-11-13T17:35:57;97.75;;;34.03;;
39490;SDS011;25175;50.140;18.990;2022-11-13T17:39:18;104.35;;;34.55;;
39490;SDS011;25175;50.140;18.990;2022-11-13T17:42:42;88.85;;;33.40;;
39490;SDS011;25175;50.140;18.990;2022-11-13T17:46:07;88.00;;;34.38;;
39490;SDS011;25175;50.140;18.990;2022-11-13T17:49:29;98.13;;;36.30;;
39490;SDS011;25175;50.140;18.990;2022-11-13T17:52:50;98.50;;;35.00;;
39490;SDS011;25175;50.140;18.990;2022-11-13T17:56:10;103.30;;;36.30;;
39490;SDS011;25175;50.140;18.990;2022-11-13T17:59:33;96.00;;;33.67;;
39490;SDS011;25175;50.140;18.990;2022-11-13T18:02:54;97.35;;;35.50;;
39490;SDS011;25175;50.140;18.990;2022-11-13T18:06:15;99.00;;;33.95;;
39490;SDS011;25175;50.140;18.990;2022-11-13T18:09:36;94.50;;;35.13;;
39490;SDS011;25175;50.140;18.990;2022-11-13T18:12:57;87.28;;;32.10;;
39490;SDS011;25175;50.140;18.990;2022-11-13T18:16:21;93.28;;;32.97;;
39490;SDS011;25175;50.140;18.990;2022-11-13T18:19:43;98.05;;;34.50;;
39490;SDS011;25175;50.140;18.990;2022-11-13T18:23:07;100.43;;;34.85;;
39490;SDS011;25175;50.140;18.990;2022-11-13T18:26:28;102.72;;;37.60;;
39490;SDS011;25175;50.140;18.990;2022-11-13T18:29:50;110.60;;;37.80;;
39490;SDS011;25175;50.140;18.990;2022-11-13T18:33:11;96.60;;;34.45;;
39490;SDS011;25175;50.140;18.990;2022-11-13T18:36:32;93.63;;;33.95;;
39490;SDS011;25175;50.140;18.990;2022-11-13T18:39:52;91.28;;;32.88;;
39490;SDS011;25175;50.140;18.990;2022-11-13T18:43:13;98.57;;;33.90;;
39490;SDS011;25175;50.140;18.990;2022-11-13T18:46:34;100.68;;;35.33;;
39490;SDS011;25175;50.140;18.990;2022-11-13T18:49:56;89.38;;;33.83;;
39490;SDS011;25175;50.140;18.990;2022-11-13T18:53:17;92.50;;;33.63;;
39490;SDS011;25175;50.140;18.990;2022-11-13T18:56:37;101.95;;;32.30;;
39490;SDS011;25175;50.140;18.990;2022-11-13T18:59:58;86.47;;;31.88;;
39490;SDS011;25175;50.140;18.990;2022-11-13T19:03:18;89.53;;;32.67;;
39490;SDS011;25175;50.140;18.990;2022-11-13T19:06:41;89.80;;;33.17;;
39490;SDS011;25175;50.140;18.990;2022-11-13T19:10:02;95.07;;;34.33;;
39490;SDS011;25175;50.140;18.990;2022-11-13T19:13:22;91.25;;;34.08;;
39490;SDS011;25175;50.140;18.990;2022-11-13T19:16:45;94.78;;;34.10;;
39490;SDS011;25175;50.140;18.990;2022-11-13T19:20:07;91.53;;;33.50;;
39490;SDS011;25175;50.140;18.990;2022-11-13T19:23:29;88.15;;;33.45;;
39490;SDS011;25175;50.140;18.990;2022-11-13T19:26:50;85.55;;;32.08;;
39490;SDS011;25175;50.140;18.990;2022-11-13T19:30:11;88.45;;;33.08;;
39490;SDS011;25175;50.140;18.990;2022-11-13T19:33:31;85.38;;;30.38;;